Time;durP1;ratioP1;P1;durP2;ratioP2;P2;SDS_P1;SDS_P2;PMS_P1;PMS_P2;Temp;Humidity;BMP_temperature;BMP_pressure;BME280_temperature;BME280_humidity;BME280_pressure;Samples;Min_cycle;Max_cycle;Signal;HPM_P1;HPM_P2
2023/01/30 00:01:15;;;;;;;20.90;11.18;;;6.30;99.90;;;;;;5112759;28;20384;-64
2023/01/30 00:03:41;;;;;;;21.48;10.50;;;6.40;99.90;;;;;;5112744;28;20044;-64
2023/01/30 00:06:07;;;;;;;19.30;10.23;;;6.40;99.90;;;;;;5112817;28;20118;-64
2023/01/30 00:08:32;;;;;;;19.52;9.63;;;6.40;99.90;;;;;;5112043;28;20560;-64
2023/01/30 00:11:03;;;;;;;22.05;10.30;;;6.40;99.90;;;;;;5077830;28;20043;-64
2023/01/30 00:13:29;;;;;;;20.27;8.88;;;6.50;99.90;;;;;;5112479;28;20483;-64
2023/01/30 00:15:55;;;;;;;20.48;10.00;;;6.40;99.90;;;;;;5112692;28;20122;-64
2023/01/30 00:18:20;;;;;;;18.55;8.95;;;6.50;99.90;;;;;;5112200;28;20386;-64
2023/01/30 00:20:46;;;;;;;20.52;9.07;;;6.50;99.90;;;;;;5112712;28;20141;-64
2023/01/30 00:23:12;;;;;;;16.42;8.35;;;6.50;99.90;;;;;;5111761;28;20048;-64
2023/01/30 00:25:37;;;;;;;16.48;8.52;;;6.50;99.90;;;;;;5112195;28;20043;-66
2023/01/30 00:28:03;;;;;;;17.73;9.00;;;6.50;99.90;;;;;;5112378;28;20493;-64
2023/01/30 00:30:29;;;;;;;18.15;8.18;;;6.50;99.90;;;;;;5112238;28;20096;-64
2023/01/30 00:32:56;;;;;;;14.80;7.72;;;6.50;99.90;;;;;;5112275;28;20047;-65
2023/01/30 00:35:27;;;;;;;15.85;8.63;;;6.50;99.90;;;;;;5111378;28;20043;-64
2023/01/30 00:37:56;;;;;;;17.15;7.53;;;6.60;99.90;;;;;;5112116;28;20225;-64
2023/01/30 00:40:23;;;;;;;17.58;8.35;;;6.60;99.90;;;;;;5111814;28;20448;-65
2023/01/30 00:48:18;;;;;;;16.55;7.43;;;6.60;99.90;;;;;;5112280;28;20047;-67
2023/01/30 00:50:44;;;;;;;19.67;8.48;;;6.60;99.90;;;;;;5093540;28;20498;-64
2023/01/30 00:53:14;;;;;;;18.92;8.55;;;6.50;99.90;;;;;;5111965;28;20501;-64
2023/01/30 00:55:40;;;;;;;21.60;8.02;;;6.50;99.90;;;;;;5093807;28;20058;-64
2023/01/30 00:58:06;;;;;;;21.23;7.90;;;6.50;99.90;;;;;;5112249;28;20055;-64
2023/01/30 01:00:32;;;;;;;21.92;8.30;;;6.50;99.90;;;;;;5093680;28;20442;-63
2023/01/30 01:02:58;;;;;;;21.80;8.10;;;6.50;99.90;;;;;;5112116;28;20073;-64
2023/01/30 01:05:24;;;;;;;18.13;8.43;;;6.10;99.90;;;;;;5111683;28;20039;-63
2023/01/30 01:07:50;;;;;;;15.45;7.38;;;6.40;99.90;;;;;;5076923;28;20052;-63
2023/01/30 01:10:16;;;;;;;18.67;7.85;;;6.40;99.90;;;;;;5111578;28;20134;-64
2023/01/30 01:12:43;;;;;;;16.58;8.32;;;6.50;99.90;;;;;;5093548;28;20526;-64
2023/01/30 01:15:11;;;;;;;12.77;7.78;;;6.50;99.90;;;;;;5111955;28;20043;-64
2023/01/30 01:17:37;;;;;;;12.07;6.78;;;6.40;99.90;;;;;;5111572;28;20048;-64
2023/01/30 01:20:04;;;;;;;14.45;7.40;;;6.40;99.90;;;;;;5094131;28;20048;-64
2023/01/30 01:22:29;;;;;;;15.80;8.00;;;6.40;99.90;;;;;;5111351;28;20043;-63
2023/01/30 01:24:55;;;;;;;16.27;7.82;;;6.40;99.90;;;;;;5077347;28;20105;-64
2023/01/30 01:27:21;;;;;;;15.60;7.95;;;6.40;99.90;;;;;;5111883;28;20066;-64
2023/01/30 01:29:47;;;;;;;10.98;5.90;;;6.40;99.90;;;;;;5093382;28;20132;-64
2023/01/30 01:32:12;;;;;;;13.13;6.50;;;6.40;99.90;;;;;;5111716;28;20136;-64
2023/01/30 01:34:38;;;;;;;17.20;6.90;;;6.40;99.90;;;;;;5111505;28;20047;-63
2023/01/30 01:37:04;;;;;;;16.02;6.35;;;6.40;99.90;;;;;;5111822;28;20127;-64
2023/01/30 01:41:00;;;;;;;14.48;6.47;;;6.40;99.90;;;;;;5093454;28;20051;-64
2023/01/30 01:42:16;;;;;;;10.13;6.03;;;6.40;99.90;;;;;;5111716;28;20047;-64
2023/01/30 01:45:16;;;;;;;15.88;6.43;;;6.40;99.90;;;;;;5111234;28;20052;-63
2023/01/30 01:47:49;;;;;;;15.38;6.68;;;6.40;99.90;;;;;;5113609;28;20082;-63
2023/01/30 01:50:21;;;;;;;16.73;7.38;;;6.40;99.90;;;;;;5115355;28;20052;-63
2023/01/30 01:52:50;;;;;;;14.57;6.00;;;6.50;99.90;;;;;;5115187;28;20200;-64
2023/01/30 01:55:16;;;;;;;15.15;6.47;;;6.50;99.90;;;;;;5115243;28;20040;-63
2023/01/30 01:57:48;;;;;;;14.10;7.18;;;6.40;99.90;;;;;;5114889;28;20044;-64
2023/01/30 02:00:19;;;;;;;12.50;6.90;;;6.40;99.90;;;;;;5097319;28;20040;-64
2023/01/30 02:03:07;;;;;;;14.27;7.95;;;6.50;99.90;;;;;;5114961;28;20039;-66
2023/01/30 02:05:36;;;;;;;15.77;7.93;;;6.50;99.90;;;;;;5096351;28;20489;-64
2023/01/30 02:08:07;;;;;;;16.77;8.98;;;6.50;99.90;;;;;;5115232;28;20140;-63
2023/01/30 02:10:42;;;;;;;21.73;9.57;;;6.50;99.90;;;;;;5115092;28;20040;-64
2023/01/30 02:13:07;;;;;;;;;;;6.50;99.90;;;;;;5097363;28;20128;-64
2023/01/30 02:15:34;;;;;;;21.20;8.18;;;6.60;99.90;;;;;;5114494;28;20381;-63
2023/01/30 02:18:00;;;;;;;27.98;8.55;;;6.50;99.90;;;;;;5114892;28;20044;-64
2023/01/30 02:20:25;;;;;;;26.85;9.93;;;6.50;99.90;;;;;;5096579;28;20127;-64
2023/01/30 02:23:33;;;;;;;27.42;10.75;;;6.60;99.90;;;;;;5114522;28;20186;-64
2023/01/30 02:26:07;;;;;;;23.10;8.88;;;6.60;99.90;;;;;;5096368;28;20043;-64
2023/01/30 02:29:02;;;;;;;;;;;6.60;99.90;;;;;;5114666;28;20048;-66
2023/01/30 02:31:42;;;;;;;28.55;9.70;;;6.60;99.90;;;;;;5114741;28;19966;-63
2023/01/30 02:34:34;;;;;;;24.85;7.57;;;6.60;99.90;;;;;;5096384;28;20039;-63
2023/01/30 02:37:05;;;;;;;30.88;8.32;;;6.60;99.90;;;;;;5096376;28;20059;-63
2023/01/30 02:39:49;;;;;;;26.75;7.57;;;6.60;99.90;;;;;;5114534;28;20059;-63
2023/01/30 02:42:17;;;;;;;25.05;7.38;;;6.70;99.90;;;;;;5114438;28;20040;-64
2023/01/30 02:44:46;;;;;;;26.20;7.93;;;6.70;99.90;;;;;;5113940;28;20048;-64
2023/01/30 02:47:23;;;;;;;26.13;8.20;;;6.70;99.90;;;;;;5114129;28;20078;-64
2023/01/30 02:50:01;;;;;;;33.25;7.80;;;6.70;99.90;;;;;;5096036;28;20070;-63
2023/01/30 02:52:28;;;;;;;32.42;8.15;;;6.70;99.90;;;;;;5114344;28;20079;-64
2023/01/30 02:54:54;;;;;;;23.48;7.10;;;6.70;99.90;;;;;;5113491;28;20074;-64
2023/01/30 02:57:22;;;;;;;26.45;7.70;;;6.80;99.90;;;;;;5113924;28;20079;-64
2023/01/30 02:59:54;;;;;;;22.38;7.47;;;6.70;99.90;;;;;;5094746;28;20089;-64
2023/01/30 03:02:31;;;;;;;32.28;6.88;;;6.80;99.90;;;;;;5114139;28;20383;-64
2023/01/30 03:05:15;;;;;;;20.35;5.43;;;6.70;99.90;;;;;;5113692;28;20113;-64
2023/01/30 03:07:47;;;;;;;20.35;5.90;;;6.70;99.90;;;;;;5113542;28;20479;-63
2023/01/30 03:10:19;;;;;;;24.75;6.05;;;6.70;99.90;;;;;;5114313;28;20134;-64
2023/01/30 03:12:57;;;;;;;22.33;6.28;;;6.70;99.90;;;;;;5095615;28;20457;-64
2023/01/30 03:15:32;;;;;;;24.08;6.07;;;6.70;99.90;;;;;;5113939;28;20039;-64
2023/01/30 03:17:59;;;;;;;28.38;5.75;;;6.70;99.90;;;;;;5095014;28;20074;-64
2023/01/30 03:20:25;;;;;;;20.55;5.22;;;6.70;99.90;;;;;;5095259;28;20509;-64
2023/01/30 03:22:53;;;;;;;20.95;5.43;;;6.70;99.90;;;;;;5113449;28;20093;-64
2023/01/30 03:25:22;;;;;;;18.15;5.93;;;6.60;99.90;;;;;;5113647;28;20055;-64
2023/01/30 03:27:51;;;;;;;23.75;5.80;;;6.70;99.90;;;;;;5113114;28;20051;-65
2023/01/30 03:30:17;;;;;;;33.78;6.68;;;6.60;99.90;;;;;;5113463;28;20127;-64
2023/01/30 03:32:43;;;;;;;31.15;7.65;;;6.60;99.90;;;;;;5078265;28;20048;-65
2023/01/30 03:35:08;;;;;;;27.48;6.60;;;6.50;99.90;;;;;;5113408;28;20074;-65
2023/01/30 03:37:34;;;;;;;24.92;6.05;;;6.50;99.90;;;;;;5113746;28;20066;-64
2023/01/30 03:40:01;;;;;;;24.63;5.68;;;6.50;99.90;;;;;;5094779;28;20047;-65
2023/01/30 03:42:27;;;;;;;26.83;5.55;;;6.50;99.90;;;;;;5095099;28;20047;-64
2023/01/30 03:44:52;;;;;;;21.90;5.53;;;6.50;99.90;;;;;;5112871;28;20047;-64
2023/01/30 03:47:18;;;;;;;25.52;5.10;;;6.40;99.90;;;;;;5113009;28;20044;-64
2023/01/30 03:49:44;;;;;;;22.33;4.90;;;6.50;99.90;;;;;;5094463;28;20044;-66
2023/01/30 03:52:09;;;;;;;24.17;5.65;;;6.30;99.90;;;;;;5113101;28;20121;-64
2023/01/30 03:54:35;;;;;;;31.40;5.80;;;6.30;99.90;;;;;;5112981;28;20044;-64
2023/01/30 03:57:01;;;;;;;23.67;5.68;;;6.30;99.90;;;;;;5112266;28;20093;-64
2023/01/30 03:59:26;;;;;;;25.00;4.90;;;6.30;99.90;;;;;;5113047;28;20044;-64
2023/01/30 04:01:52;;;;;;;23.92;5.25;;;6.20;99.90;;;;;;5112633;28;20043;-64
2023/01/30 04:04:18;;;;;;;27.85;6.03;;;6.20;99.90;;;;;;5094781;28;20035;-64
2023/01/30 04:06:43;;;;;;;30.00;6.20;;;6.10;99.90;;;;;;5112925;28;20147;-64
2023/01/30 04:09:09;;;;;;;22.98;6.05;;;6.10;99.90;;;;;;5112548;28;20048;-64
2023/01/30 04:11:35;;;;;;;32.83;5.57;;;6.10;99.90;;;;;;5111524;28;20051;-64
2023/01/30 04:14:00;;;;;;;26.65;6.28;;;6.10;99.90;;;;;;5112338;28;20051;-64
2023/01/30 04:16:26;;;;;;;32.45;6.15;;;6.00;99.90;;;;;;5112660;28;20050;-64
2023/01/30 04:18:52;;;;;;;22.15;5.18;;;6.00;99.90;;;;;;5112351;28;20044;-64
2023/01/30 04:21:18;;;;;;;31.15;5.93;;;6.00;99.90;;;;;;5112595;28;20043;-64
2023/01/30 04:23:44;;;;;;;28.52;5.88;;;6.00;99.90;;;;;;5112738;28;20059;-64
2023/01/30 04:26:12;;;;;;;25.27;5.63;;;5.90;99.90;;;;;;5112333;28;20047;-64
2023/01/30 04:28:38;;;;;;;27.33;5.45;;;5.90;99.90;;;;;;5077706;28;20097;-64
2023/01/30 04:31:05;;;;;;;26.52;5.95;;;5.90;99.90;;;;;;5094352;28;20075;-64
2023/01/30 04:33:34;;;;;;;24.38;5.30;;;5.90;99.90;;;;;;5112320;28;20098;-64
2023/01/30 04:36:01;;;;;;;22.80;4.95;;;5.90;99.90;;;;;;5111800;28;20043;-64
2023/01/30 04:38:30;;;;;;;27.85;5.32;;;5.80;99.90;;;;;;5112514;28;20142;-66
2023/01/30 04:40:57;;;;;;;30.65;5.72;;;5.80;99.90;;;;;;5112023;28;20122;-64
2023/01/30 04:43:25;;;;;;;24.83;5.63;;;5.70;99.90;;;;;;5112338;28;20047;-64
2023/01/30 04:45:51;;;;;;;23.77;4.90;;;5.70;99.90;;;;;;5112285;28;20090;-66
2023/01/30 04:48:18;;;;;;;32.85;6.53;;;5.60;99.90;;;;;;5112622;28;20059;-64
2023/01/30 04:50:47;;;;;;;35.75;7.05;;;5.70;99.90;;;;;;5111921;28;20094;-64
2023/01/30 04:53:13;;;;;;;29.83;5.60;;;5.60;99.90;;;;;;5111697;28;20058;-64
2023/01/30 04:55:39;;;;;;;36.22;5.97;;;5.60;99.90;;;;;;5112115;28;20092;-64
2023/01/30 04:58:05;;;;;;;34.83;5.63;;;5.60;99.90;;;;;;5093102;28;20043;-64
2023/01/30 05:00:31;;;;;;;28.35;6.07;;;5.60;99.90;;;;;;5112071;28;20079;-64
2023/01/30 05:02:56;;;;;;;33.53;6.38;;;5.70;99.90;;;;;;5093335;28;20558;-64
2023/01/30 05:05:23;;;;;;;31.83;5.38;;;5.60;99.90;;;;;;5112171;28;20046;-64
2023/01/30 05:07:49;;;;;;;27.45;6.65;;;5.70;99.90;;;;;;5111951;28;20143;-66
2023/01/30 05:10:15;;;;;;;28.42;6.53;;;5.60;99.90;;;;;;5111676;28;20113;-66
2023/01/30 05:12:41;;;;;;;29.85;6.53;;;5.60;99.90;;;;;;5094075;28;20164;-65
2023/01/30 05:15:07;;;;;;;26.45;6.57;;;5.60;99.90;;;;;;5093552;28;20134;-65
2023/01/30 05:17:34;;;;;;;21.48;5.30;;;5.60;99.90;;;;;;5112039;28;20040;-65
2023/01/30 05:19:59;;;;;;;27.13;6.00;;;5.60;99.90;;;;;;5111496;28;20047;-66
2023/01/30 05:22:25;;;;;;;31.45;5.50;;;5.60;99.90;;;;;;5114169;28;20039;-66
2023/01/30 05:24:50;;;;;;;30.73;5.88;;;5.60;99.90;;;;;;5116057;28;20131;-65
2023/01/30 05:27:17;;;;;;;30.20;6.82;;;5.60;99.90;;;;;;5115411;28;20052;-65
2023/01/30 05:29:42;;;;;;;26.38;6.30;;;5.50;99.90;;;;;;5097983;28;20086;-65
2023/01/30 05:32:18;;;;;;;37.95;6.70;;;5.50;99.90;;;;;;5115578;28;20071;-65
2023/01/30 05:34:44;;;;;;;38.33;5.65;;;5.50;99.90;;;;;;5115993;28;20430;-65
2023/01/30 05:37:11;;;;;;;26.42;5.80;;;5.50;99.90;;;;;;5097341;28;20047;-65
2023/01/30 05:39:37;;;;;;;33.92;5.78;;;5.40;99.90;;;;;;5097596;28;20401;-66
2023/01/30 05:42:02;;;;;;;37.35;7.07;;;5.40;99.90;;;;;;5115203;28;20066;-65
2023/01/30 05:44:28;;;;;;;30.73;6.38;;;5.30;99.90;;;;;;5080843;28;20485;-65
2023/01/30 05:46:54;;;;;;;26.95;6.20;;;5.30;99.90;;;;;;5115946;28;20039;-65
2023/01/30 05:49:20;;;;;;;41.78;7.05;;;5.30;99.90;;;;;;5115173;28;20039;-65
2023/01/30 05:51:45;;;;;;;32.80;6.43;;;5.30;99.90;;;;;;5076877;28;20070;-65
2023/01/30 05:54:11;;;;;;;30.73;5.90;;;5.60;99.90;;;;;;5076802;28;20047;-65
2023/01/30 05:56:37;;;;;;;31.77;6.32;;;5.50;99.90;;;;;;5095240;28;20081;-65
2023/01/30 05:59:03;;;;;;;31.23;6.63;;;5.50;99.90;;;;;;5094808;28;20043;-68
2023/01/30 06:01:29;;;;;;;25.58;6.82;;;5.40;99.90;;;;;;5094162;28;20501;-64
2023/01/30 06:03:56;;;;;;;31.85;6.88;;;5.50;99.90;;;;;;5094811;28;20051;-63
2023/01/30 06:06:22;;;;;;;36.50;6.05;;;5.40;99.90;;;;;;5094203;28;20044;-63
2023/01/30 06:08:52;;;;;;;30.77;5.90;;;5.40;99.90;;;;;;5094819;28;20043;-65
2023/01/30 06:11:18;;;;;;;29.50;6.40;;;5.40;99.90;;;;;;5092743;28;20051;-66
2023/01/30 06:13:44;;;;;;;36.58;6.10;;;5.50;99.90;;;;;;5093191;28;20051;-65
2023/01/30 06:16:11;;;;;;;32.55;6.10;;;5.50;99.90;;;;;;5093060;28;20047;-64
2023/01/30 06:18:38;;;;;;;32.38;6.57;;;5.50;99.90;;;;;;5094442;28;20054;-64
2023/01/30 06:21:04;;;;;;;29.48;5.65;;;5.50;99.90;;;;;;5094193;28;20139;-66
2023/01/30 06:23:30;;;;;;;26.75;6.05;;;5.60;99.90;;;;;;5094058;28;20093;-64
2023/01/30 06:25:56;;;;;;;33.63;6.05;;;5.60;99.90;;;;;;5094432;28;20094;-64
2023/01/30 06:28:23;;;;;;;26.67;6.60;;;5.60;99.90;;;;;;5092598;28;20448;-64
2023/01/30 06:30:49;;;;;;;27.42;6.20;;;5.60;99.90;;;;;;5094303;28;20068;-64
2023/01/30 06:33:15;;;;;;;25.85;6.20;;;5.60;99.90;;;;;;5092682;28;20075;-64
2023/01/30 06:35:41;;;;;;;33.40;6.53;;;5.70;99.90;;;;;;5093861;28;20374;-64
2023/01/30 06:38:12;;;;;;;31.38;6.38;;;5.70;99.90;;;;;;5093915;28;20048;-67
2023/01/30 06:40:39;;;;;;;30.70;6.57;;;5.70;99.90;;;;;;5094208;28;20054;-64
2023/01/30 06:43:05;;;;;;;32.50;6.07;;;5.70;99.90;;;;;;5093576;28;20630;-64
2023/01/30 06:45:31;;;;;;;39.53;6.88;;;5.80;99.90;;;;;;5093521;28;20130;-64
2023/01/30 06:47:58;;;;;;;34.97;6.90;;;5.80;99.90;;;;;;5093078;28;20043;-64
2023/01/30 06:50:27;;;;;;;31.85;6.38;;;5.80;99.90;;;;;;5097161;28;20052;-64
2023/01/30 06:52:54;;;;;;;29.10;6.97;;;5.70;99.90;;;;;;5114402;28;20099;-64
2023/01/30 06:55:22;;;;;;;33.03;6.93;;;5.70;99.90;;;;;;5113952;28;20134;-64
2023/01/30 06:57:49;;;;;;;35.83;5.82;;;5.70;99.90;;;;;;5114301;28;20048;-64
2023/01/30 07:00:17;;;;;;;24.88;5.65;;;5.70;99.90;;;;;;5095396;28;20046;-65
2023/01/30 07:02:43;;;;;;;28.08;6.10;;;5.80;99.90;;;;;;5113659;28;20051;-66
2023/01/30 07:05:10;;;;;;;32.15;6.30;;;5.80;99.90;;;;;;5095707;28;20565;-65
2023/01/30 07:07:36;;;;;;;28.25;5.97;;;5.80;99.90;;;;;;5095587;28;20047;-65
2023/01/30 07:10:05;;;;;;;30.73;5.10;;;5.70;99.90;;;;;;5095663;28;20058;-63
2023/01/30 07:12:31;;;;;;;34.30;6.40;;;5.80;99.90;;;;;;5113346;28;20043;-64
2023/01/30 07:14:57;;;;;;;30.25;6.05;;;5.80;99.90;;;;;;5078268;28;20047;-64
2023/01/30 07:17:22;;;;;;;28.77;5.43;;;5.80;99.90;;;;;;5112989;28;20096;-64
2023/01/30 07:19:48;;;;;;;24.48;5.03;;;5.80;99.90;;;;;;5113356;28;20039;-64
2023/01/30 07:22:14;;;;;;;26.73;5.90;;;5.80;99.90;;;;;;5077612;28;20523;-66
2023/01/30 07:24:41;;;;;;;26.75;6.25;;;5.80;99.90;;;;;;5113327;28;20514;-63
2023/01/30 07:27:12;;;;;;;28.88;5.78;;;5.80;99.90;;;;;;5113137;28;20400;-63
2023/01/30 07:29:38;;;;;;;30.35;6.00;;;5.80;99.90;;;;;;5113176;28;20052;-64
2023/01/30 07:32:06;;;;;;;28.88;5.88;;;5.70;99.90;;;;;;5095303;28;20043;-64
2023/01/30 07:34:33;;;;;;;38.00;6.80;;;5.80;99.90;;;;;;5112648;28;20047;-64
2023/01/30 07:36:58;;;;;;;27.73;6.35;;;5.90;99.90;;;;;;5113162;28;20083;-64
2023/01/30 07:39:24;;;;;;;30.00;6.15;;;5.90;99.90;;;;;;5112889;28;20075;-64
2023/01/30 07:41:50;;;;;;;25.90;5.55;;;5.90;99.90;;;;;;5112808;28;20039;-63
2023/01/30 07:44:15;;;;;;;27.85;6.78;;;5.90;99.90;;;;;;5112812;28;20043;-66
2023/01/30 07:46:41;;;;;;;26.75;5.75;;;5.90;99.90;;;;;;5112798;28;20047;-63
2023/01/30 07:49:08;;;;;;;31.17;6.25;;;5.90;99.90;;;;;;5113268;28;20048;-63
2023/01/30 07:51:34;;;;;;;26.88;5.40;;;5.90;99.90;;;;;;5093999;28;20087;-63
2023/01/30 07:54:00;;;;;;;36.88;5.95;;;6.00;99.90;;;;;;5094835;28;20094;-63
2023/01/30 07:56:27;;;;;;;29.23;6.10;;;6.00;99.90;;;;;;5112374;28;20054;-63
2023/01/30 07:58:54;;;;;;;27.30;5.88;;;6.00;99.90;;;;;;5094920;28;20087;-64
2023/01/30 08:01:20;;;;;;;29.17;5.82;;;6.00;99.90;;;;;;5112503;28;20380;-64
2023/01/30 08:03:48;;;;;;;30.48;5.97;;;6.00;99.90;;;;;;5094781;28;20127;-63
2023/01/30 08:06:14;;;;;;;35.72;6.00;;;6.10;99.90;;;;;;5112797;28;20055;-64
2023/01/30 08:08:40;;;;;;;33.25;5.88;;;6.10;99.90;;;;;;5112392;28;20699;-64
2023/01/30 08:11:06;;;;;;;28.48;5.05;;;6.10;99.90;;;;;;5094878;28;20058;-64
2023/01/30 08:13:32;;;;;;;31.27;6.10;;;6.00;99.90;;;;;;5112190;28;20047;-64
2023/01/30 08:16:02;;;;;;;28.10;5.85;;;6.10;99.90;;;;;;5112669;28;20162;-64
2023/01/30 08:18:28;;;;;;;29.52;5.93;;;6.10;99.90;;;;;;5111829;28;20044;-65
2023/01/30 08:20:58;;;;;;;34.83;5.88;;;6.10;99.90;;;;;;5094301;28;20097;-64
2023/01/30 08:23:24;;;;;;;25.20;5.90;;;6.10;99.90;;;;;;5112159;28;20079;-63
2023/01/30 08:25:54;;;;;;;26.65;5.63;;;6.20;99.90;;;;;;5112124;28;20146;-63
2023/01/30 08:28:20;;;;;;;26.95;5.80;;;6.20;99.90;;;;;;5112424;28;20089;-63
2023/01/30 08:30:46;;;;;;;28.08;5.55;;;6.20;99.90;;;;;;5111712;28;20102;-63
2023/01/30 08:33:11;;;;;;;32.50;5.97;;;6.20;99.90;;;;;;5112708;28;20047;-63
2023/01/30 08:35:38;;;;;;;34.15;6.30;;;6.20;99.90;;;;;;5093396;28;20396;-63
2023/01/30 08:38:10;;;;;;;28.00;5.13;;;6.20;99.90;;;;;;5111704;28;20147;-63
2023/01/30 08:40:36;;;;;;;30.50;5.97;;;6.30;99.90;;;;;;5093829;28;20043;-64
2023/01/30 08:43:03;;;;;;;26.30;5.43;;;6.30;99.90;;;;;;5094213;28;20101;-65
2023/01/30 08:45:28;;;;;;;29.08;5.63;;;6.30;99.90;;;;;;5111170;28;20070;-63
2023/01/30 08:48:02;;;;;;;32.22;7.18;;;6.40;99.90;;;;;;5093783;28;20469;-64
2023/01/30 08:50:28;;;;;;;30.60;6.27;;;6.40;99.90;;;;;;5111456;28;20123;-63
2023/01/30 08:52:54;;;;;;;36.03;5.97;;;6.40;99.90;;;;;;5093944;28;20278;-63
2023/01/30 08:55:20;;;;;;;28.33;5.38;;;6.40;99.90;;;;;;5111956;28;20047;-64
2023/01/30 08:57:46;;;;;;;28.98;6.25;;;6.50;99.90;;;;;;5111137;28;20086;-64
2023/01/30 09:00:13;;;;;;;26.35;5.53;;;6.50;99.90;;;;;;5111894;28;20048;-64
2023/01/30 09:02:39;;;;;;;33.95;6.88;;;6.50;99.90;;;;;;5111450;28;20040;-64
2023/01/30 09:05:06;;;;;;;27.40;5.15;;;6.50;99.90;;;;;;5111188;28;20099;-66
2023/01/30 09:07:32;;;;;;;31.02;5.97;;;6.60;99.90;;;;;;5108435;28;20333;-64
2023/01/30 09:09:57;;;;;;;30.70;5.63;;;6.60;99.90;;;;;;5091954;28;20044;-63
2023/01/30 09:12:23;;;;;;;27.98;5.65;;;6.60;99.90;;;;;;5075526;28;20043;-64
2023/01/30 09:14:51;;;;;;;29.50;5.20;;;6.60;99.90;;;;;;5107924;28;20035;-67
2023/01/30 09:17:17;;;;;;;31.27;5.35;;;6.60;99.90;;;;;;5109751;28;20059;-64
2023/01/30 09:19:43;;;;;;;27.60;5.47;;;6.60;99.90;;;;;;5109927;28;20039;-64
2023/01/30 09:22:08;;;;;;;27.23;6.60;;;6.60;99.90;;;;;;5109814;28;20119;-63
2023/01/30 09:24:34;;;;;;;32.28;6.28;;;6.60;99.90;;;;;;5111463;28;20114;-63
2023/01/30 09:27:00;;;;;;;35.72;6.65;;;6.60;99.90;;;;;;5111571;28;20039;-65
2023/01/30 09:29:26;;;;;;;33.55;6.72;;;6.60;99.90;;;;;;5111767;28;20044;-64
2023/01/30 09:31:55;;;;;;;35.80;6.95;;;6.60;99.90;;;;;;5111160;28;20044;-64
2023/01/30 09:34:27;;;;;;;25.58;5.47;;;6.60;99.90;;;;;;5111763;28;20093;-64
2023/01/30 09:37:03;;;;;;;26.67;5.07;;;6.50;99.90;;;;;;5111059;28;20523;-63
2023/01/30 09:39:28;;;;;;;26.38;6.28;;;6.50;99.90;;;;;;5111973;28;20420;-63
2023/01/30 09:42:14;;;;;;;31.17;7.47;;;6.50;99.90;;;;;;5111286;28;20043;-63
2023/01/30 09:44:43;;;;;;;26.23;6.15;;;6.50;99.90;;;;;;5052280;28;20463;-64
2023/01/30 09:47:29;;;;;;;38.58;7.43;;;6.50;99.90;;;;;;5111942;28;20039;-63
2023/01/30 09:50:16;;;;;;;31.38;6.35;;;6.50;99.90;;;;;;5111807;28;20055;-63
2023/01/30 09:53:01;;;;;;;30.33;6.80;;;6.60;99.90;;;;;;5111442;28;20123;-64
2023/01/30 09:55:28;;;;;;;34.38;5.75;;;6.70;99.90;;;;;;5112242;28;20086;-63
2023/01/30 09:57:57;;;;;;;26.30;5.43;;;6.80;99.90;;;;;;5093026;28;20485;-63
2023/01/30 10:00:41;;;;;;;38.72;6.45;;;6.80;99.90;;;;;;5111742;28;20050;-65
2023/01/30 10:03:17;;;;;;;32.90;7.18;;;6.90;99.90;;;;;;5111708;28;20043;-64
2023/01/30 10:05:57;;;;;;;30.50;6.85;;;7.00;99.90;;;;;;5111550;28;20441;-62
2023/01/30 10:08:33;;;;;;;25.25;5.38;;;7.00;99.90;;;;;;5076775;28;20036;-64
2023/01/30 10:11:13;;;;;;;31.45;6.18;;;7.30;99.90;;;;;;5115486;28;20098;-64
2023/01/30 10:14:15;;;;;;;32.58;6.38;;;7.10;99.90;;;;;;5097161;28;20051;-64
2023/01/30 10:16:57;;;;;;;36.65;7.47;;;7.20;99.90;;;;;;5096753;28;20067;-64
2023/01/30 10:19:35;;;;;;;31.52;6.32;;;7.30;99.90;;;;;;5097278;28;20054;-64
2023/01/30 10:22:32;;;;;;;29.95;5.75;;;7.30;99.90;;;;;;5096489;28;20043;-63
2023/01/30 10:25:15;;;;;;;34.78;6.47;;;7.30;99.90;;;;;;5114780;28;20071;-63
2023/01/30 10:27:53;;;;;;;15.70;3.30;;;7.10;99.90;;;;;;5114466;28;20520;-64
2023/01/30 10:30:19;;;;;;;14.95;3.35;;;6.90;99.90;;;;;;5114813;28;20043;-63
2023/01/30 10:33:19;;;;;;;16.80;4.18;;;6.60;99.90;;;;;;5114619;28;20050;-65
2023/01/30 10:36:15;;;;;;;8.60;2.20;;;6.40;99.90;;;;;;5114377;28;20051;-65
2023/01/30 10:38:48;;;;;;;13.23;2.58;;;6.30;99.90;;;;;;5110095;28;20100;-64
2023/01/30 10:41:41;;;;;;;8.52;2.00;;;6.10;99.90;;;;;;5114505;28;20079;-64
2023/01/30 10:44:11;;;;;;;9.10;2.05;;;6.00;99.90;;;;;;5114774;28;20055;-63
2023/01/30 10:47:12;;;;;;;8.23;1.85;;;5.90;99.90;;;;;;5096707;28;20039;-64
2023/01/30 10:49:41;;;;;;;8.30;2.17;;;5.90;99.90;;;;;;5096368;28;20121;-68
2023/01/30 10:52:35;;;;;;;10.45;2.53;;;5.90;99.90;;;;;;5114761;28;20480;-63
2023/01/30 10:55:43;;;;;;;8.25;2.30;;;6.10;99.90;;;;;;5096104;28;20047;-64
2023/01/30 10:58:14;;;;;;;15.68;2.83;;;6.20;99.90;;;;;;5114311;28;20046;-65
2023/01/30 11:00:49;;;;;;;13.80;3.45;;;6.30;99.90;;;;;;5114265;28;20112;-71
2023/01/30 11:03:27;;;;;;;19.95;4.18;;;6.40;99.90;;;;;;5096457;28;20127;-64
2023/01/30 11:06:04;;;;;;;15.30;3.75;;;6.50;99.90;;;;;;5114072;28;20424;-64
2023/01/30 11:08:32;;;;;;;18.10;3.53;;;6.60;99.90;;;;;;5114357;28;20051;-63
2023/01/30 11:10:58;;;;;;;25.83;4.85;;;6.70;99.90;;;;;;5113828;28;20043;-63
2023/01/30 11:13:32;;;;;;;19.48;4.32;;;6.70;99.90;;;;;;5113760;28;20071;-63
2023/01/30 11:16:08;;;;;;;22.02;4.07;;;6.80;99.90;;;;;;5113629;28;20061;-64
2023/01/30 11:18:48;;;;;;;22.83;5.13;;;6.80;99.90;;;;;;5114253;28;20112;-64
2023/01/30 11:21:22;;;;;;;25.50;5.18;;;6.90;99.90;;;;;;5113322;28;20333;-64
2023/01/30 11:23:49;;;;;;;;;;;7.10;99.90;;;;;;5114032;28;20127;-64
2023/01/30 11:26:29;;;;;;;25.02;4.70;;;7.10;99.90;;;;;;5113797;28;20033;-62
2023/01/30 11:28:55;;;;;;;25.30;5.20;;;7.20;99.90;;;;;;5113560;28;20127;-64
2023/01/30 11:31:29;;;;;;;22.08;4.55;;;7.30;99.90;;;;;;5113656;28;20079;-64
2023/01/30 11:34:00;;;;;;;;;;;7.40;99.90;;;;;;5114068;28;20055;-64
2023/01/30 11:36:29;;;;;;;24.60;5.13;;;7.50;99.90;;;;;;5113199;28;20361;-64
2023/01/30 11:38:59;;;;;;;18.98;3.42;;;7.50;99.90;;;;;;5113397;28;20044;-63
2023/01/30 11:41:25;;;;;;;16.88;3.88;;;7.50;99.90;;;;;;5113422;28;20358;-65
2023/01/30 11:44:02;;;;;;;21.77;4.43;;;7.50;99.90;;;;;;5113130;28;20078;-65
2023/01/30 11:46:35;;;;;;;17.17;3.47;;;7.50;99.90;;;;;;5113528;28;20473;-63
2023/01/30 11:49:04;;;;;;;15.13;3.55;;;7.40;99.90;;;;;;5112849;28;20044;-63
2023/01/30 11:51:34;;;;;;;18.20;3.88;;;7.40;99.90;;;;;;5113270;28;20055;-62
2023/01/30 11:54:05;;;;;;;17.73;4.13;;;7.50;99.90;;;;;;5113164;28;20048;-63
2023/01/30 11:56:51;;;;;;;22.25;4.13;;;7.50;99.90;;;;;;5113253;28;20112;-63
2023/01/30 11:59:33;;;;;;;15.30;3.78;;;7.50;99.90;;;;;;5113034;28;20047;-64
2023/01/30 12:02:19;;;;;;;24.15;4.47;;;7.40;99.90;;;;;;5112700;28;20039;-64
2023/01/30 12:04:50;;;;;;;22.30;4.97;;;7.40;99.90;;;;;;5113107;28;20054;-63
2023/01/30 12:07:21;;;;;;;23.30;4.30;;;7.40;99.90;;;;;;5095547;28;20043;-64
2023/01/30 12:09:49;;;;;;;21.23;4.38;;;7.40;99.90;;;;;;5112685;28;20039;-64
2023/01/30 12:12:36;;;;;;;20.20;5.30;;;7.50;99.90;;;;;;5112974;28;20198;-64
2023/01/30 12:15:32;;;;;;;22.00;4.35;;;7.60;99.90;;;;;;5112556;28;20089;-63
2023/01/30 12:18:17;;;;;;;24.23;4.82;;;7.70;99.90;;;;;;5095068;28;20059;-64
2023/01/30 12:20:58;;;;;;;24.88;4.35;;;7.80;99.90;;;;;;5112908;28;20043;-64
2023/01/30 12:23:45;;;;;;;21.85;5.28;;;7.70;99.90;;;;;;5094619;28;20479;-64
2023/01/30 12:26:17;;;;;;;26.00;5.25;;;7.70;99.90;;;;;;5112358;28;20059;-63
2023/01/30 12:28:53;;;;;;;24.88;5.38;;;7.70;99.90;;;;;;5112398;28;20058;-65
2023/01/30 12:31:35;;;;;;;26.55;5.75;;;7.60;99.90;;;;;;5094295;28;20047;-63
2023/01/30 12:34:04;;;;;;;22.75;4.63;;;7.60;99.90;;;;;;5112004;28;20130;-64
2023/01/30 12:36:35;;;;;;;30.40;7.97;;;7.60;99.90;;;;;;5112355;28;20378;-64
2023/01/30 12:39:27;;;;;;;25.73;6.25;;;7.50;99.90;;;;;;5112112;28;20101;-63
2023/01/30 12:41:58;;;;;;;36.10;6.78;;;7.50;99.90;;;;;;5111795;28;20051;-66
2023/01/30 12:44:29;;;;;;;25.23;7.45;;;7.40;99.90;;;;;;5112370;28;20047;-63
2023/01/30 12:47:16;;;;;;;33.88;5.75;;;7.40;99.90;;;;;;5093983;28;20051;-63
2023/01/30 12:50:03;;;;;;;24.75;4.70;;;7.40;99.90;;;;;;5112340;28;20040;-63
2023/01/30 12:52:56;;;;;;;30.58;5.88;;;7.50;99.90;;;;;;5112218;28;20040;-63
2023/01/30 12:55:53;;;;;;;26.20;5.18;;;7.50;99.90;;;;;;5106752;28;20401;-63
2023/01/30 12:58:25;;;;;;;24.08;5.03;;;7.60;99.90;;;;;;5076309;28;20075;-62
2023/01/30 13:01:13;;;;;;;31.33;6.07;;;7.60;99.90;;;;;;5093649;28;20048;-63
2023/01/30 13:04:02;;;;;;;29.90;5.00;;;7.50;99.90;;;;;;5111939;28;20447;-63
2023/01/30 13:06:54;;;;;;;19.30;4.63;;;7.40;99.90;;;;;;5111942;28;20044;-63
2023/01/30 13:09:34;;;;;;;24.10;4.70;;;7.40;99.90;;;;;;5093914;28;20154;-63
2023/01/30 13:13:05;;;;;;;29.02;4.90;;;7.40;99.90;;;;;;5111723;28;20047;-63